KGI weather

Kalgoorlie Boulder Airport
Kalgoorlie, Western Australia, Australia

Public forecast

Using degrees Celsius for public forecast. Weather courtesy of forecast.io.

Current aviation weather report (METAR) for Kalgoorlie Boulder Airport

Retrieved 2019/10/13 23:30 UTC (2 minutes ago):

YPKG 132330Z AUTO 13004KT 110V170 9999 // NCD 17/06 Q1016 RF000/0002

Aviation forecast (TAF) for Kalgoorlie Boulder Airport

Retrieved 2019/10/13 18:00 UTC (6 hours ago):

TAF YPKG 131702Z 1318/1418 VRB05KT CAVOK FM140400 28008KT CAVOK FM140800 24012KT CAVOK FM141200 17014KT CAVOK